sensor_id;sensor_type;location;lat;lon;timestamp;P1;durP1;ratioP1;P2;durP2;ratioP2
30966;SDS011;17649;51.836;8.330;2022-07-30T00:02:06;33.92;;;20.45;;
30966;SDS011;17649;51.836;8.330;2022-07-30T00:05:11;31.27;;;21.98;;
30966;SDS011;17649;51.836;8.330;2022-07-30T00:08:15;29.98;;;20.88;;
30966;SDS011;17649;51.836;8.330;2022-07-30T00:11:18;28.58;;;21.35;;
30966;SDS011;17649;51.836;8.330;2022-07-30T00:14:23;28.98;;;20.33;;
30966;SDS011;17649;51.836;8.330;2022-07-30T00:17:24;35.30;;;22.58;;
30966;SDS011;17649;51.836;8.330;2022-07-30T00:20:36;39.55;;;24.08;;
30966;SDS011;17649;51.836;8.330;2022-07-30T00:23:39;28.70;;;23.17;;
30966;SDS011;17649;51.836;8.330;2022-07-30T00:26:52;35.95;;;24.30;;
30966;SDS011;17649;51.836;8.330;2022-07-30T00:29:57;36.33;;;25.38;;
30966;SDS011;17649;51.836;8.330;2022-07-30T00:33:02;30.73;;;23.33;;
30966;SDS011;17649;51.836;8.330;2022-07-30T00:36:04;38.60;;;25.80;;
30966;SDS011;17649;51.836;8.330;2022-07-30T00:39:06;34.58;;;25.33;;
30966;SDS011;17649;51.836;8.330;2022-07-30T00:42:17;33.60;;;24.50;;
30966;SDS011;17649;51.836;8.330;2022-07-30T00:45:28;30.65;;;23.33;;
30966;SDS011;17649;51.836;8.330;2022-07-30T00:48:36;31.40;;;24.50;;
30966;SDS011;17649;51.836;8.330;2022-07-30T00:51:44;33.80;;;26.23;;
30966;SDS011;17649;51.836;8.330;2022-07-30T00:54:49;39.63;;;29.65;;
30966;SDS011;17649;51.836;8.330;2022-07-30T00:57:55;42.83;;;28.63;;
30966;SDS011;17649;51.836;8.330;2022-07-30T01:01:00;38.40;;;27.75;;
30966;SDS011;17649;51.836;8.330;2022-07-30T01:04:02;41.90;;;29.38;;
30966;SDS011;17649;51.836;8.330;2022-07-30T01:07:13;35.15;;;26.80;;
30966;SDS011;17649;51.836;8.330;2022-07-30T01:10:25;38.13;;;28.13;;
30966;SDS011;17649;51.836;8.330;2022-07-30T01:14:03;46.63;;;30.70;;
30966;SDS011;17649;51.836;8.330;2022-07-30T01:17:16;41.63;;;30.77;;
30966;SDS011;17649;51.836;8.330;2022-07-30T01:20:25;38.13;;;27.75;;
30966;SDS011;17649;51.836;8.330;2022-07-30T01:23:53;43.15;;;31.45;;
30966;SDS011;17649;51.836;8.330;2022-07-30T01:27:07;45.17;;;31.75;;
30966;SDS011;17649;51.836;8.330;2022-07-30T01:30:18;66.47;;;35.20;;
30966;SDS011;17649;51.836;8.330;2022-07-30T01:33:22;39.80;;;29.88;;
30966;SDS011;17649;51.836;8.330;2022-07-30T01:36:24;38.42;;;30.15;;
30966;SDS011;17649;51.836;8.330;2022-07-30T01:39:25;41.93;;;32.40;;
30966;SDS011;17649;51.836;8.330;2022-07-30T01:42:27;50.28;;;34.30;;
30966;SDS011;17649;51.836;8.330;2022-07-30T01:45:32;56.72;;;32.58;;
30966;SDS011;17649;51.836;8.330;2022-07-30T01:48:34;50.65;;;30.73;;
30966;SDS011;17649;51.836;8.330;2022-07-30T01:54:37;40.80;;;28.77;;
30966;SDS011;17649;51.836;8.330;2022-07-30T01:57:39;42.77;;;30.90;;
30966;SDS011;17649;51.836;8.330;2022-07-30T02:00:41;46.80;;;31.92;;
30966;SDS011;17649;51.836;8.330;2022-07-30T02:03:42;46.92;;;33.45;;
30966;SDS011;17649;51.836;8.330;2022-07-30T02:06:45;47.00;;;34.00;;
30966;SDS011;17649;51.836;8.330;2022-07-30T02:09:53;43.03;;;30.77;;
30966;SDS011;17649;51.836;8.330;2022-07-30T02:12:58;50.58;;;33.05;;
30966;SDS011;17649;51.836;8.330;2022-07-30T02:19:13;37.58;;;28.23;;
30966;SDS011;17649;51.836;8.330;2022-07-30T02:22:16;40.75;;;31.15;;
30966;SDS011;17649;51.836;8.330;2022-07-30T02:25:19;47.70;;;32.40;;
30966;SDS011;17649;51.836;8.330;2022-07-30T02:28:20;46.80;;;31.98;;
30966;SDS011;17649;51.836;8.330;2022-07-30T02:31:23;41.90;;;29.83;;
30966;SDS011;17649;51.836;8.330;2022-07-30T02:34:26;45.38;;;31.63;;
30966;SDS011;17649;51.836;8.330;2022-07-30T02:40:29;44.58;;;29.70;;
30966;SDS011;17649;51.836;8.330;2022-07-30T02:43:45;42.17;;;30.67;;
30966;SDS011;17649;51.836;8.330;2022-07-30T02:46:51;41.40;;;31.35;;
30966;SDS011;17649;51.836;8.330;2022-07-30T02:49:54;47.35;;;32.38;;
30966;SDS011;17649;51.836;8.330;2022-07-30T02:52:56;47.63;;;34.90;;
30966;SDS011;17649;51.836;8.330;2022-07-30T02:55:58;47.20;;;34.20;;
30966;SDS011;17649;51.836;8.330;2022-07-30T02:59:00;47.53;;;33.10;;
30966;SDS011;17649;51.836;8.330;2022-07-30T03:02:04;48.15;;;34.88;;
30966;SDS011;17649;51.836;8.330;2022-07-30T03:05:08;45.15;;;31.80;;
30966;SDS011;17649;51.836;8.330;2022-07-30T03:08:10;41.28;;;31.00;;
30966;SDS011;17649;51.836;8.330;2022-07-30T03:11:12;46.15;;;32.55;;
30966;SDS011;17649;51.836;8.330;2022-07-30T03:14:14;39.05;;;30.67;;
30966;SDS011;17649;51.836;8.330;2022-07-30T03:17:15;43.63;;;31.85;;
30966;SDS011;17649;51.836;8.330;2022-07-30T03:20:18;46.95;;;32.58;;
30966;SDS011;17649;51.836;8.330;2022-07-30T03:23:22;40.58;;;32.17;;
30966;SDS011;17649;51.836;8.330;2022-07-30T03:26:24;46.70;;;32.97;;
30966;SDS011;17649;51.836;8.330;2022-07-30T03:29:27;47.42;;;33.35;;
30966;SDS011;17649;51.836;8.330;2022-07-30T03:32:29;40.88;;;31.17;;
30966;SDS011;17649;51.836;8.330;2022-07-30T03:35:31;46.67;;;32.43;;
30966;SDS011;17649;51.836;8.330;2022-07-30T03:38:32;43.53;;;32.53;;
30966;SDS011;17649;51.836;8.330;2022-07-30T03:41:35;46.55;;;33.83;;
30966;SDS011;17649;51.836;8.330;2022-07-30T03:44:36;42.70;;;31.48;;
30966;SDS011;17649;51.836;8.330;2022-07-30T03:47:37;45.28;;;34.03;;
30966;SDS011;17649;51.836;8.330;2022-07-30T03:50:39;41.67;;;31.17;;
30966;SDS011;17649;51.836;8.330;2022-07-30T03:53:40;45.67;;;33.23;;
30966;SDS011;17649;51.836;8.330;2022-07-30T03:56:47;43.85;;;32.05;;
30966;SDS011;17649;51.836;8.330;2022-07-30T03:59:53;52.88;;;34.95;;
30966;SDS011;17649;51.836;8.330;2022-07-30T04:03:03;47.60;;;34.28;;
30966;SDS011;17649;51.836;8.330;2022-07-30T04:06:08;50.60;;;33.22;;
30966;SDS011;17649;51.836;8.330;2022-07-30T04:12:11;51.15;;;34.78;;
30966;SDS011;17649;51.836;8.330;2022-07-30T04:15:12;46.20;;;34.88;;
30966;SDS011;17649;51.836;8.330;2022-07-30T04:18:13;45.38;;;35.00;;
30966;SDS011;17649;51.836;8.330;2022-07-30T04:21:16;48.35;;;32.80;;
30966;SDS011;17649;51.836;8.330;2022-07-30T04:24:19;49.85;;;34.13;;
30966;SDS011;17649;51.836;8.330;2022-07-30T04:27:22;50.53;;;34.60;;
30966;SDS011;17649;51.836;8.330;2022-07-30T04:30:26;42.67;;;31.77;;
30966;SDS011;17649;51.836;8.330;2022-07-30T04:33:27;44.80;;;34.03;;
30966;SDS011;17649;51.836;8.330;2022-07-30T04:36:28;43.33;;;34.35;;
30966;SDS011;17649;51.836;8.330;2022-07-30T04:39:29;40.70;;;32.15;;
30966;SDS011;17649;51.836;8.330;2022-07-30T04:42:29;49.22;;;34.42;;
30966;SDS011;17649;51.836;8.330;2022-07-30T04:45:30;43.47;;;33.38;;
30966;SDS011;17649;51.836;8.330;2022-07-30T04:48:30;48.83;;;34.92;;
30966;SDS011;17649;51.836;8.330;2022-07-30T04:51:31;56.67;;;38.25;;
30966;SDS011;17649;51.836;8.330;2022-07-30T04:54:36;49.65;;;36.60;;
30966;SDS011;17649;51.836;8.330;2022-07-30T04:57:41;63.75;;;41.15;;
30966;SDS011;17649;51.836;8.330;2022-07-30T05:00:41;60.78;;;38.30;;
30966;SDS011;17649;51.836;8.330;2022-07-30T05:03:43;52.63;;;37.17;;
30966;SDS011;17649;51.836;8.330;2022-07-30T05:06:45;54.85;;;39.40;;
30966;SDS011;17649;51.836;8.330;2022-07-30T05:09:46;63.88;;;41.65;;
30966;SDS011;17649;51.836;8.330;2022-07-30T05:12:47;55.20;;;39.38;;
30966;SDS011;17649;51.836;8.330;2022-07-30T05:15:47;59.87;;;41.47;;
30966;SDS011;17649;51.836;8.330;2022-07-30T05:18:47;62.83;;;41.30;;
30966;SDS011;17649;51.836;8.330;2022-07-30T05:21:48;68.47;;;43.63;;
30966;SDS011;17649;51.836;8.330;2022-07-30T05:24:48;57.15;;;41.03;;
30966;SDS011;17649;51.836;8.330;2022-07-30T05:27:48;55.77;;;41.10;;
30966;SDS011;17649;51.836;8.330;2022-07-30T05:30:50;58.97;;;39.28;;
30966;SDS011;17649;51.836;8.330;2022-07-30T05:33:51;61.95;;;39.33;;
30966;SDS011;17649;51.836;8.330;2022-07-30T05:36:52;57.60;;;39.85;;
30966;SDS011;17649;51.836;8.330;2022-07-30T05:39:52;55.38;;;38.53;;
30966;SDS011;17649;51.836;8.330;2022-07-30T05:42:55;57.10;;;37.40;;
30966;SDS011;17649;51.836;8.330;2022-07-30T05:45:56;51.95;;;37.53;;
30966;SDS011;17649;51.836;8.330;2022-07-30T05:48:58;55.58;;;38.78;;
30966;SDS011;17649;51.836;8.330;2022-07-30T05:51:58;59.50;;;39.88;;
30966;SDS011;17649;51.836;8.330;2022-07-30T05:54:59;55.80;;;38.67;;
30966;SDS011;17649;51.836;8.330;2022-07-30T05:57:59;56.88;;;39.00;;
30966;SDS011;17649;51.836;8.330;2022-07-30T06:01:07;56.53;;;39.03;;
30966;SDS011;17649;51.836;8.330;2022-07-30T06:04:11;56.55;;;39.28;;
30966;SDS011;17649;51.836;8.330;2022-07-30T06:07:12;58.28;;;39.80;;
30966;SDS011;17649;51.836;8.330;2022-07-30T06:10:13;60.60;;;40.88;;
30966;SDS011;17649;51.836;8.330;2022-07-30T06:13:13;58.10;;;41.28;;
30966;SDS011;17649;51.836;8.330;2022-07-30T06:16:14;59.40;;;39.45;;
30966;SDS011;17649;51.836;8.330;2022-07-30T06:19:18;56.35;;;39.50;;
30966;SDS011;17649;51.836;8.330;2022-07-30T06:22:19;49.60;;;36.00;;
30966;SDS011;17649;51.836;8.330;2022-07-30T06:25:19;54.63;;;36.30;;
30966;SDS011;17649;51.836;8.330;2022-07-30T06:28:20;53.00;;;36.88;;
30966;SDS011;17649;51.836;8.330;2022-07-30T06:31:23;45.90;;;32.53;;
30966;SDS011;17649;51.836;8.330;2022-07-30T06:34:26;45.38;;;32.92;;
30966;SDS011;17649;51.836;8.330;2022-07-30T06:37:30;48.25;;;32.13;;
30966;SDS011;17649;51.836;8.330;2022-07-30T06:40:36;41.75;;;29.02;;
30966;SDS011;17649;51.836;8.330;2022-07-30T06:47:27;40.45;;;30.20;;
30966;SDS011;17649;51.836;8.330;2022-07-30T06:50:56;41.67;;;29.48;;
30966;SDS011;17649;51.836;8.330;2022-07-30T06:57:23;38.33;;;27.75;;
30966;SDS011;17649;51.836;8.330;2022-07-30T07:00:26;39.30;;;28.60;;
30966;SDS011;17649;51.836;8.330;2022-07-30T07:03:29;40.28;;;28.02;;
30966;SDS011;17649;51.836;8.330;2022-07-30T07:06:32;37.88;;;26.55;;
30966;SDS011;17649;51.836;8.330;2022-07-30T07:09:41;36.45;;;24.80;;
30966;SDS011;17649;51.836;8.330;2022-07-30T07:12:47;35.13;;;24.23;;
30966;SDS011;17649;51.836;8.330;2022-07-30T07:15:51;29.65;;;22.20;;
30966;SDS011;17649;51.836;8.330;2022-07-30T07:18:55;28.30;;;20.30;;
30966;SDS011;17649;51.836;8.330;2022-07-30T07:21:58;39.13;;;21.70;;
30966;SDS011;17649;51.836;8.330;2022-07-30T07:25:00;29.42;;;21.38;;
30966;SDS011;17649;51.836;8.330;2022-07-30T07:28:10;31.10;;;22.40;;
30966;SDS011;17649;51.836;8.330;2022-07-30T07:31:16;33.92;;;20.60;;
30966;SDS011;17649;51.836;8.330;2022-07-30T07:34:30;26.02;;;19.42;;
30966;SDS011;17649;51.836;8.330;2022-07-30T07:37:45;29.48;;;20.40;;
30966;SDS011;17649;51.836;8.330;2022-07-30T07:40:53;26.92;;;20.13;;
30966;SDS011;17649;51.836;8.330;2022-07-30T07:44:07;26.73;;;18.92;;
30966;SDS011;17649;51.836;8.330;2022-07-30T07:47:27;26.65;;;20.08;;
30966;SDS011;17649;51.836;8.330;2022-07-30T07:50:47;31.30;;;19.15;;
30966;SDS011;17649;51.836;8.330;2022-07-30T07:53:58;43.92;;;19.58;;
30966;SDS011;17649;51.836;8.330;2022-07-30T07:57:29;42.45;;;21.38;;
30966;SDS011;17649;51.836;8.330;2022-07-30T08:00:41;24.05;;;16.55;;
30966;SDS011;17649;51.836;8.330;2022-07-30T08:03:50;26.38;;;16.80;;
30966;SDS011;17649;51.836;8.330;2022-07-30T08:07:02;23.38;;;16.65;;
30966;SDS011;17649;51.836;8.330;2022-07-30T08:10:06;26.15;;;16.15;;
30966;SDS011;17649;51.836;8.330;2022-07-30T08:13:27;21.40;;;16.13;;
30966;SDS011;17649;51.836;8.330;2022-07-30T08:16:41;25.45;;;16.88;;
30966;SDS011;17649;51.836;8.330;2022-07-30T08:19:59;33.00;;;18.20;;
30966;SDS011;17649;51.836;8.330;2022-07-30T08:23:05;27.67;;;19.38;;
30966;SDS011;17649;51.836;8.330;2022-07-30T08:26:12;21.15;;;15.57;;
30966;SDS011;17649;51.836;8.330;2022-07-30T08:29:34;23.55;;;16.35;;
30966;SDS011;17649;51.836;8.330;2022-07-30T08:32:45;25.13;;;15.20;;
30966;SDS011;17649;51.836;8.330;2022-07-30T08:39:06;22.27;;;15.10;;
30966;SDS011;17649;51.836;8.330;2022-07-30T08:42:21;23.52;;;15.57;;
30966;SDS011;17649;51.836;8.330;2022-07-30T08:46:21;22.02;;;12.82;;
30966;SDS011;17649;51.836;8.330;2022-07-30T08:49:46;21.77;;;12.52;;
30966;SDS011;17649;51.836;8.330;2022-07-30T08:53:33;18.55;;;11.57;;
30966;SDS011;17649;51.836;8.330;2022-07-30T09:01:19;15.45;;;10.98;;
30966;SDS011;17649;51.836;8.330;2022-07-30T09:19:24;17.02;;;12.15;;
30966;SDS011;17649;51.836;8.330;2022-07-30T09:23:02;23.38;;;12.18;;
30966;SDS011;17649;51.836;8.330;2022-07-30T09:34:03;15.15;;;8.20;;
30966;SDS011;17649;51.836;8.330;2022-07-30T09:37:56;13.93;;;9.35;;
30966;SDS011;17649;51.836;8.330;2022-07-30T09:45:38;15.63;;;9.50;;
30966;SDS011;17649;51.836;8.330;2022-07-30T11:34:46;17.55;;;5.50;;
30966;SDS011;17649;51.836;8.330;2022-07-30T13:50:48;8.63;;;3.00;;
30966;SDS011;17649;51.836;8.330;2022-07-30T13:54:32;6.38;;;3.00;;
30966;SDS011;17649;51.836;8.330;2022-07-30T13:58:12;5.47;;;2.78;;
30966;SDS011;17649;51.836;8.330;2022-07-30T14:01:57;4.47;;;2.90;;
30966;SDS011;17649;51.836;8.330;2022-07-30T14:05:08;6.03;;;3.80;;
30966;SDS011;17649;51.836;8.330;2022-07-30T14:08:25;4.50;;;2.85;;
30966;SDS011;17649;51.836;8.330;2022-07-30T14:15:48;3.63;;;2.92;;
30966;SDS011;17649;51.836;8.330;2022-07-30T14:28:23;5.15;;;2.88;;
30966;SDS011;17649;51.836;8.330;2022-07-30T14:31:06;8.77;;;5.03;;
30966;SDS011;17649;51.836;8.330;2022-07-30T14:34:29;7.88;;;3.30;;
30966;SDS011;17649;51.836;8.330;2022-07-30T14:37:40;8.50;;;3.78;;
30966;SDS011;17649;51.836;8.330;2022-07-30T14:44:55;4.68;;;3.40;;
30966;SDS011;17649;51.836;8.330;2022-07-30T14:52:02;9.88;;;3.45;;
30966;SDS011;17649;51.836;8.330;2022-07-30T14:55:50;6.28;;;3.30;;
30966;SDS011;17649;51.836;8.330;2022-07-30T14:59:35;4.55;;;2.95;;
30966;SDS011;17649;51.836;8.330;2022-07-30T15:02:47;9.13;;;4.65;;
30966;SDS011;17649;51.836;8.330;2022-07-30T15:06:07;4.60;;;3.47;;
30966;SDS011;17649;51.836;8.330;2022-07-30T15:09:21;5.78;;;3.45;;
30966;SDS011;17649;51.836;8.330;2022-07-30T15:12:35;4.18;;;3.13;;
30966;SDS011;17649;51.836;8.330;2022-07-30T15:15:46;3.55;;;3.08;;
30966;SDS011;17649;51.836;8.330;2022-07-30T15:18:51;14.02;;;8.30;;
30966;SDS011;17649;51.836;8.330;2022-07-30T15:22:24;7.72;;;3.50;;
30966;SDS011;17649;51.836;8.330;2022-07-30T15:28:51;5.10;;;3.55;;
30966;SDS011;17649;51.836;8.330;2022-07-30T15:36:00;4.25;;;2.92;;
30966;SDS011;17649;51.836;8.330;2022-07-30T15:39:26;7.07;;;3.00;;
30966;SDS011;17649;51.836;8.330;2022-07-30T15:42:42;4.43;;;2.95;;
30966;SDS011;17649;51.836;8.330;2022-07-30T15:45:43;8.40;;;4.80;;
30966;SDS011;17649;51.836;8.330;2022-07-30T15:49:18;5.20;;;3.45;;
30966;SDS011;17649;51.836;8.330;2022-07-30T15:56:27;3.95;;;2.70;;
30966;SDS011;17649;51.836;8.330;2022-07-30T15:59:54;4.75;;;2.67;;
30966;SDS011;17649;51.836;8.330;2022-07-30T16:06:56;5.80;;;2.08;;
30966;SDS011;17649;51.836;8.330;2022-07-30T16:10:28;4.22;;;2.58;;
30966;SDS011;17649;51.836;8.330;2022-07-30T16:18:11;5.32;;;2.88;;
30966;SDS011;17649;51.836;8.330;2022-07-30T16:21:50;3.80;;;2.60;;
30966;SDS011;17649;51.836;8.330;2022-07-30T16:24:54;3.33;;;2.22;;
30966;SDS011;17649;51.836;8.330;2022-07-30T16:28:15;5.40;;;2.53;;
30966;SDS011;17649;51.836;8.330;2022-07-30T16:34:43;5.13;;;2.95;;
30966;SDS011;17649;51.836;8.330;2022-07-30T16:38:01;4.15;;;2.30;;
30966;SDS011;17649;51.836;8.330;2022-07-30T16:41:17;3.67;;;2.20;;
30966;SDS011;17649;51.836;8.330;2022-07-30T17:25:31;6.53;;;2.80;;
30966;SDS011;17649;51.836;8.330;2022-07-30T17:29:26;8.60;;;3.90;;
30966;SDS011;17649;51.836;8.330;2022-07-30T17:32:37;4.90;;;3.10;;
30966;SDS011;17649;51.836;8.330;2022-07-30T17:35:45;7.65;;;2.72;;
30966;SDS011;17649;51.836;8.330;2022-07-30T17:38:56;4.15;;;2.20;;
30966;SDS011;17649;51.836;8.330;2022-07-30T17:42:09;3.60;;;2.08;;
30966;SDS011;17649;51.836;8.330;2022-07-30T17:45:23;3.83;;;2.33;;
30966;SDS011;17649;51.836;8.330;2022-07-30T17:48:31;7.07;;;2.47;;
30966;SDS011;17649;51.836;8.330;2022-07-30T17:51:40;4.75;;;2.40;;
30966;SDS011;17649;51.836;8.330;2022-07-30T17:54:51;10.07;;;2.40;;
30966;SDS011;17649;51.836;8.330;2022-07-30T17:57:59;6.90;;;2.20;;
30966;SDS011;17649;51.836;8.330;2022-07-30T18:01:32;2.45;;;1.95;;
30966;SDS011;17649;51.836;8.330;2022-07-30T18:04:45;8.43;;;2.45;;
30966;SDS011;17649;51.836;8.330;2022-07-30T18:08:01;3.38;;;2.13;;
30966;SDS011;17649;51.836;8.330;2022-07-30T18:11:25;5.35;;;2.65;;
30966;SDS011;17649;51.836;8.330;2022-07-30T18:14:51;4.57;;;2.58;;
30966;SDS011;17649;51.836;8.330;2022-07-30T18:18:33;6.28;;;2.80;;
30966;SDS011;17649;51.836;8.330;2022-07-30T18:21:55;5.47;;;2.60;;
30966;SDS011;17649;51.836;8.330;2022-07-30T18:28:56;9.23;;;2.38;;
30966;SDS011;17649;51.836;8.330;2022-07-30T18:32:00;5.85;;;2.58;;
30966;SDS011;17649;51.836;8.330;2022-07-30T18:43:12;6.30;;;2.40;;
30966;SDS011;17649;51.836;8.330;2022-07-30T18:49:54;3.25;;;2.08;;
30966;SDS011;17649;51.836;8.330;2022-07-30T18:53:02;3.97;;;2.30;;
30966;SDS011;17649;51.836;8.330;2022-07-30T19:19:38;3.50;;;2.10;;
30966;SDS011;17649;51.836;8.330;2022-07-30T19:50:02;4.88;;;1.75;;
30966;SDS011;17649;51.836;8.330;2022-07-30T19:58:14;3.20;;;1.88;;
30966;SDS011;17649;51.836;8.330;2022-07-30T20:22:12;4.47;;;2.13;;
30966;SDS011;17649;51.836;8.330;2022-07-30T20:25:44;5.57;;;2.30;;
30966;SDS011;17649;51.836;8.330;2022-07-30T20:29:06;5.15;;;2.45;;
30966;SDS011;17649;51.836;8.330;2022-07-30T20:40:07;5.93;;;3.00;;
30966;SDS011;17649;51.836;8.330;2022-07-30T20:44:01;6.43;;;2.13;;
30966;SDS011;17649;51.836;8.330;2022-07-30T20:50:44;5.10;;;2.60;;
30966;SDS011;17649;51.836;8.330;2022-07-30T20:53:49;6.75;;;2.65;;
30966;SDS011;17649;51.836;8.330;2022-07-30T20:57:30;5.25;;;2.90;;
30966;SDS011;17649;51.836;8.330;2022-07-30T21:00:33;4.03;;;2.17;;
30966;SDS011;17649;51.836;8.330;2022-07-30T21:03:41;6.57;;;3.17;;
30966;SDS011;17649;51.836;8.330;2022-07-30T21:07:04;3.80;;;3.05;;
30966;SDS011;17649;51.836;8.330;2022-07-30T21:10:21;7.75;;;2.85;;
30966;SDS011;17649;51.836;8.330;2022-07-30T21:17:53;4.35;;;2.80;;
30966;SDS011;17649;51.836;8.330;2022-07-30T22:21:33;5.85;;;2.50;;
30966;SDS011;17649;51.836;8.330;2022-07-30T22:45:30;3.05;;;2.40;;
30966;SDS011;17649;51.836;8.330;2022-07-30T23:21:31;4.38;;;2.70;;
